createdAt,value
2019-04-11T00:00:50.593Z,11.93
2019-04-11T00:03:19.590Z,11.83
2019-04-11T00:05:48.356Z,11.53
2019-04-11T00:08:17.587Z,12.03
2019-04-11T00:10:47.051Z,11.33
2019-04-11T00:13:23.503Z,11.43
2019-04-11T00:15:47.066Z,11.27
2019-04-11T00:18:16.649Z,11.37
2019-04-11T00:20:46.470Z,11.40
2019-04-11T00:23:16.279Z,11.53
2019-04-11T00:25:45.194Z,11.50
2019-04-11T00:28:13.951Z,11.53
2019-04-11T00:30:42.714Z,11.28
2019-04-11T00:33:11.535Z,11.70
2019-04-11T00:35:40.286Z,11.67
2019-04-11T00:38:09.835Z,12.30
2019-04-11T00:40:39.622Z,11.70
2019-04-11T00:43:09.484Z,10.70
2019-04-11T00:45:38.342Z,12.58
2019-04-11T00:48:07.107Z,11.83
2019-04-11T00:50:37.134Z,11.23
2019-04-11T00:53:06.152Z,10.93
2019-04-11T00:55:35.647Z,11.10
2019-04-11T00:58:05.566Z,10.82
2019-04-11T01:00:36.518Z,11.23
2019-04-11T01:03:06.398Z,10.90
2019-04-11T01:05:35.437Z,11.20
2019-04-11T01:08:05.242Z,11.60
2019-04-11T01:10:34.210Z,10.47
2019-04-11T01:13:03.330Z,11.30
2019-04-11T01:15:32.383Z,11.10
2019-04-11T01:18:01.455Z,11.30
2019-04-11T01:20:31.306Z,11.80
2019-04-11T01:23:00.257Z,10.35
2019-04-11T01:25:29.022Z,10.68
2019-04-11T01:27:58.492Z,10.73
2019-04-11T01:30:34.358Z,11.08
2019-04-11T01:33:03.185Z,11.03
2019-04-11T01:35:33.129Z,11.67
2019-04-11T01:38:02.134Z,10.93
2019-04-11T01:40:31.901Z,11.48
2019-04-11T01:43:01.888Z,11.50
2019-04-11T01:45:31.666Z,11.48
2019-04-11T01:48:15.375Z,11.60
2019-04-11T01:50:45.259Z,11.43
2019-04-11T01:53:15.122Z,11.27
2019-04-11T01:55:45.019Z,12.10
2019-04-11T01:58:14.242Z,11.57
2019-04-11T02:00:54.697Z,11.75
2019-04-11T02:03:32.994Z,11.80
2019-04-11T02:06:02.358Z,12.10
2019-04-11T02:08:31.331Z,11.97
2019-04-11T02:13:28.390Z,12.27
2019-04-11T02:15:58.839Z,10.95
2019-04-11T02:18:27.958Z,11.93
2019-04-11T02:20:58.297Z,11.77
2019-04-11T02:23:39.694Z,12.97
2019-04-11T02:26:25.434Z,12.57
2019-04-11T02:28:55.205Z,12.37
2019-04-11T02:31:26.183Z,12.37
2019-04-11T02:33:55.323Z,12.10
2019-04-11T02:36:24.969Z,12.17
2019-04-11T02:38:57.049Z,11.67
2019-04-11T02:41:25.405Z,12.15
2019-04-11T02:43:55.039Z,11.57
2019-04-11T02:46:35.567Z,11.97
2019-04-11T02:48:56.602Z,12.10
2019-04-11T02:51:26.994Z,13.00
2019-04-11T02:53:57.328Z,11.73
2019-04-11T02:56:27.965Z,11.70
2019-04-11T02:58:56.825Z,12.33
2019-04-11T03:01:26.308Z,12.37
2019-04-11T03:03:56.986Z,11.73
2019-04-11T03:06:28.012Z,12.43
2019-04-11T03:08:57.507Z,10.87
2019-04-11T03:11:27.610Z,11.20
2019-04-11T03:13:58.331Z,10.97
2019-04-11T03:16:42.953Z,10.23
2019-04-11T03:19:17.943Z,11.13
2019-04-11T03:21:32.982Z,11.73
2019-04-11T03:24:01.310Z,10.30
2019-04-11T03:26:33.575Z,12.30
2019-04-11T03:29:04.103Z,12.93
2019-04-11T03:32:13.776Z,13.43
2019-04-11T03:34:59.419Z,12.63
2019-04-11T03:37:14.757Z,10.97
2019-04-11T03:39:29.107Z,9.70
2019-04-11T03:41:54.740Z,9.33
2019-04-11T03:44:18.236Z,9.37
2019-04-11T03:46:55.747Z,8.53
2019-04-11T03:49:24.994Z,8.35
2019-04-11T03:51:45.435Z,8.57
2019-04-11T03:54:15.724Z,8.68
2019-04-11T03:56:45.763Z,8.77
2019-04-11T03:59:16.767Z,7.07
2019-04-11T04:01:46.738Z,7.80
2019-04-11T04:04:19.295Z,7.70
2019-04-11T04:06:47.890Z,8.77
2019-04-11T04:09:19.196Z,8.13
2019-04-11T04:11:49.479Z,8.20
2019-04-11T04:14:46.646Z,7.53
2019-04-11T04:17:45.489Z,7.50
2019-04-11T04:20:49.143Z,8.43
2019-04-11T04:23:31.466Z,13.80
2019-04-11T04:26:03.014Z,9.97
2019-04-11T04:28:33.337Z,8.83
2019-04-11T04:31:04.401Z,8.63
2019-04-11T04:33:35.151Z,9.20
2019-04-11T04:36:06.625Z,8.50
2019-04-11T04:38:35.591Z,8.37
2019-04-11T04:41:20.037Z,7.40
2019-04-11T04:43:38.798Z,7.53
2019-04-11T04:46:23.775Z,7.62
2019-04-11T04:48:40.354Z,7.60
2019-04-11T04:51:11.161Z,7.15
2019-04-11T04:53:40.910Z,7.13
2019-04-11T04:56:11.111Z,7.80
2019-04-11T04:58:40.095Z,10.37
2019-04-11T05:01:10.050Z,14.30
2019-04-11T05:03:40.458Z,8.47
2019-04-11T05:06:11.855Z,7.62
2019-04-11T05:08:41.039Z,9.73
2019-04-11T05:11:10.158Z,7.87
2019-04-11T05:13:40.816Z,8.93
2019-04-11T05:16:17.214Z,8.37
2019-04-11T05:18:39.949Z,8.70
2019-04-11T05:21:08.728Z,8.30
2019-04-11T05:23:37.499Z,7.80
2019-04-11T05:26:06.896Z,7.17
2019-04-11T05:28:35.730Z,7.83
2019-04-11T05:31:04.491Z,8.10
2019-04-11T05:33:33.278Z,7.10
2019-04-11T05:36:02.041Z,8.13
2019-04-11T05:38:30.793Z,7.20
2019-04-11T05:40:59.640Z,7.67
2019-04-11T05:43:31.897Z,7.63
2019-04-11T05:45:58.889Z,7.40
2019-04-11T05:48:50.581Z,7.50
2019-04-11T05:51:23.119Z,8.13
2019-04-11T05:53:52.938Z,7.33
2019-04-11T05:56:27.813Z,7.80
2019-04-11T05:58:55.790Z,8.00
2019-04-11T06:01:31.262Z,8.43
2019-04-11T06:04:04.267Z,7.53
2019-04-11T06:06:46.469Z,6.77
2019-04-11T06:09:21.530Z,6.85
2019-04-11T06:12:03.333Z,7.20
2019-04-11T06:14:37.561Z,6.90
2019-04-11T06:17:11.396Z,7.17
2019-04-11T06:20:02.369Z,6.90
2019-04-11T06:22:31.860Z,7.20
2019-04-11T06:25:23.568Z,7.20
2019-04-11T06:27:55.816Z,7.60
2019-04-11T06:30:42.326Z,7.80
2019-04-11T06:33:20.605Z,6.93
2019-04-11T06:36:21.094Z,7.73
2019-04-11T06:38:56.643Z,7.77
2019-04-11T06:41:48.659Z,7.25
2019-04-11T06:44:26.486Z,7.33
2019-04-11T06:47:13.456Z,7.07
2019-04-11T06:49:52.938Z,7.20
2019-04-11T06:52:22.326Z,7.20
2019-04-11T06:55:22.670Z,7.60
2019-04-11T06:57:52.530Z,7.70
2019-04-11T07:00:21.372Z,7.20
2019-04-11T07:02:55.122Z,7.28
2019-04-11T07:05:25.202Z,7.23
2019-04-11T07:07:54.204Z,6.95
2019-04-11T07:10:28.600Z,7.53
2019-04-11T07:13:12.108Z,7.40
2019-04-11T07:15:46.780Z,7.20
2019-04-11T07:18:33.310Z,7.50
2019-04-11T07:21:04.320Z,6.87
2019-04-11T07:23:51.403Z,7.70
2019-04-11T07:26:38.213Z,7.60
2019-04-11T07:29:26.310Z,8.13
2019-04-11T07:32:22.143Z,7.63
2019-04-11T07:35:13.334Z,7.33
2019-04-11T07:37:41.285Z,7.07
2019-04-11T07:40:36.665Z,7.40
2019-04-11T07:43:24.768Z,7.43
2019-04-11T07:46:14.986Z,7.80
2019-04-11T07:48:44.686Z,7.57
2019-04-11T07:51:31.979Z,6.60
2019-04-11T07:54:02.724Z,7.10
2019-04-11T07:56:55.120Z,7.47
2019-04-11T07:59:49.075Z,6.43
2019-04-11T08:02:43.439Z,6.97
2019-04-11T08:05:38.857Z,5.97
2019-04-11T08:08:25.880Z,5.90
2019-04-11T08:11:17.717Z,5.50
2019-04-11T08:14:00.109Z,6.07
2019-04-11T08:16:47.129Z,6.13
2019-04-11T08:19:41.171Z,6.00
2019-04-11T08:22:23.071Z,5.57
2019-04-11T08:24:59.135Z,5.40
2019-04-11T08:27:56.022Z,6.03
2019-04-11T08:30:14.955Z,5.20
2019-04-11T08:32:53.887Z,6.27
2019-04-11T08:35:53.464Z,5.23
2019-04-11T08:38:32.805Z,5.97
2019-04-11T08:41:07.946Z,5.40
2019-04-11T08:43:37.460Z,5.50
2019-04-11T08:46:12.934Z,5.42
2019-04-11T08:48:45.613Z,5.30
2019-04-11T08:51:15.193Z,5.73
2019-04-11T08:54:03.111Z,5.77
2019-04-11T08:56:32.049Z,5.40
2019-04-11T08:59:46.143Z,5.30
2019-04-11T09:02:44.931Z,5.70
2019-04-11T09:05:33.332Z,5.53
2019-04-11T09:08:12.759Z,4.73
2019-04-11T09:11:00.523Z,5.15
2019-04-11T09:13:44.096Z,5.30
2019-04-11T09:16:37.532Z,5.10
2019-04-11T09:19:13.247Z,5.07
2019-04-11T09:22:00.479Z,5.25
2019-04-11T09:25:05.147Z,5.10
2019-04-11T09:27:55.558Z,5.37
2019-04-11T09:30:36.854Z,5.27
2019-04-11T09:33:24.663Z,5.40
2019-04-11T09:35:55.470Z,5.57
2019-04-11T09:38:26.420Z,5.67
2019-04-11T09:41:04.276Z,5.50
2019-04-11T09:43:33.909Z,5.80
2019-04-11T09:46:18.621Z,5.93
2019-04-11T09:49:15.633Z,5.83
2019-04-11T09:52:02.658Z,5.57
2019-04-11T09:55:00.903Z,5.40
2019-04-11T09:57:34.668Z,5.00
2019-04-11T10:00:26.868Z,6.00
2019-04-11T10:03:25.610Z,5.47
2019-04-11T10:06:07.739Z,5.17
2019-04-11T10:08:41.742Z,5.58
2019-04-11T10:11:28.416Z,6.33
2019-04-11T10:14:11.279Z,5.30
2019-04-11T10:16:58.142Z,5.62
2019-04-11T10:19:52.308Z,5.60
2019-04-11T10:22:49.162Z,4.87
2019-04-11T10:25:41.111Z,5.47
2019-04-11T10:28:29.528Z,5.40
2019-04-11T10:31:08.603Z,5.73
2019-04-11T10:34:04.593Z,5.37
2019-04-11T10:36:53.708Z,5.90
2019-04-11T10:39:41.735Z,5.90
2019-04-11T10:42:12.659Z,5.53
2019-04-11T10:45:06.705Z,5.47
2019-04-11T10:47:36.706Z,5.97
2019-04-11T10:50:21.722Z,5.40
2019-04-11T10:52:56.598Z,5.40
2019-04-11T10:55:51.749Z,5.50
2019-04-11T10:58:24.912Z,5.53
2019-04-11T11:01:11.532Z,5.70
2019-04-11T11:03:47.248Z,5.37
2019-04-11T11:06:18.299Z,5.58
2019-04-11T11:09:01.784Z,5.43
2019-04-11T11:11:34.650Z,5.40
2019-04-11T11:14:22.876Z,5.60
2019-04-11T11:17:02.093Z,5.23
2019-04-11T11:20:19.561Z,5.03
2019-04-11T11:22:57.614Z,4.87
2019-04-11T11:25:49.778Z,5.10
2019-04-11T11:28:21.231Z,5.15
2019-04-11T11:31:14.573Z,5.30
2019-04-11T11:33:44.893Z,6.17
2019-04-11T11:36:39.591Z,4.80
2019-04-11T11:39:13.193Z,5.50
2019-04-11T11:42:00.040Z,5.50
2019-04-11T11:44:34.985Z,5.13
2019-04-11T11:47:21.690Z,4.80
2019-04-11T11:49:57.141Z,5.35
2019-04-11T11:52:39.406Z,5.63
2019-04-11T11:55:10.338Z,5.53
2019-04-11T11:57:46.759Z,5.97
2019-04-11T12:00:27.186Z,5.70
2019-04-11T12:03:08.868Z,5.15
2019-04-11T12:05:47.091Z,5.87
2019-04-11T12:08:20.385Z,5.83
2019-04-11T12:10:51.549Z,5.60
2019-04-11T12:13:45.691Z,5.70
2019-04-11T12:16:27.976Z,5.37
2019-04-11T12:19:07.397Z,5.50
2019-04-11T12:21:36.778Z,5.93
2019-04-11T12:24:32.403Z,5.57
2019-04-11T12:27:31.067Z,5.40
2019-04-11T12:30:13.335Z,5.67
2019-04-11T12:32:48.709Z,5.17
2019-04-11T12:35:32.721Z,5.08
2019-04-11T12:38:06.824Z,5.13
2019-04-11T12:40:53.903Z,5.35
2019-04-11T12:43:23.720Z,5.23
2019-04-11T12:46:10.552Z,5.73
2019-04-11T12:48:43.118Z,5.40
2019-04-11T12:51:37.419Z,5.27
2019-04-11T12:54:12.145Z,5.47
2019-04-11T12:56:56.367Z,5.12
2019-04-11T12:59:28.370Z,5.07
2019-04-11T13:01:56.336Z,5.30
2019-04-11T13:04:45.209Z,4.90
2019-04-11T13:07:33.393Z,4.77
2019-04-11T13:10:20.942Z,4.93
2019-04-11T13:13:23.947Z,4.90
2019-04-11T13:16:11.138Z,5.53
2019-04-11T13:18:43.181Z,4.70
2019-04-11T13:21:22.010Z,4.83
2019-04-11T13:24:10.536Z,4.58
2019-04-11T13:27:14.052Z,4.80
2019-04-11T13:30:02.358Z,4.60
2019-04-11T13:32:40.046Z,4.20
2019-04-11T13:35:14.468Z,4.72
2019-04-11T13:38:01.875Z,4.93
2019-04-11T13:41:02.568Z,5.20
2019-04-11T13:43:44.228Z,4.67
2019-04-11T13:46:41.274Z,4.57
2019-04-11T13:49:29.174Z,4.53
2019-04-11T13:52:13.446Z,4.60
2019-04-11T13:54:59.143Z,4.60
2019-04-11T13:57:55.079Z,4.50
2019-04-11T14:00:42.063Z,4.83
2019-04-11T14:03:45.769Z,5.27
2019-04-11T14:06:20.537Z,4.40
2019-04-11T14:09:24.129Z,4.50
2019-04-11T14:11:58.554Z,4.50
2019-04-11T14:14:35.873Z,5.13
2019-04-11T14:17:21.823Z,4.60
2019-04-11T14:20:03.218Z,4.70
2019-04-11T14:22:43.419Z,4.47
2019-04-11T14:25:47.958Z,4.40
2019-04-11T14:28:17.056Z,4.50
2019-04-11T14:31:07.444Z,4.35
2019-04-11T14:33:37.291Z,4.10
2019-04-11T14:36:33.587Z,4.90
2019-04-11T14:39:00.486Z,4.97
2019-04-11T14:41:47.599Z,4.27
2019-04-11T14:44:17.096Z,4.60
2019-04-11T14:47:14.479Z,4.23
2019-04-11T14:49:44.784Z,4.80
2019-04-11T14:52:32.747Z,4.92
2019-04-11T14:55:02.882Z,4.80
2019-04-11T14:57:53.606Z,5.10
2019-04-11T15:00:28.764Z,5.00
2019-04-11T15:03:16.673Z,5.03
2019-04-11T15:05:49.030Z,4.40
2019-04-11T15:08:26.198Z,4.93
2019-04-11T15:11:21.508Z,4.77
2019-04-11T15:13:53.010Z,4.50
2019-04-11T15:16:50.318Z,5.43
2019-04-11T15:19:19.151Z,4.70
2019-04-11T15:22:07.276Z,4.65
2019-04-11T15:24:37.588Z,5.10
2019-04-11T15:27:25.496Z,5.50
2019-04-11T15:29:57.583Z,5.12
2019-04-11T15:32:54.293Z,5.40
2019-04-11T15:35:23.206Z,4.63
2019-04-11T15:38:24.252Z,4.65
2019-04-11T15:40:57.122Z,5.23
2019-04-11T15:43:45.096Z,7.10
2019-04-11T15:46:23.451Z,5.30
2019-04-11T15:49:20.530Z,5.50
2019-04-11T15:51:43.872Z,5.67
2019-04-11T15:54:34.883Z,6.40
2019-04-11T15:57:32.909Z,8.37
2019-04-11T16:00:28.518Z,6.50
2019-04-11T16:03:04.915Z,5.60
2019-04-11T16:05:52.299Z,5.97
2019-04-11T16:08:43.740Z,6.20
2019-04-11T16:11:32.525Z,6.30
2019-04-11T16:14:08.335Z,6.67
2019-04-11T16:16:56.776Z,8.03
2019-04-11T16:19:55.095Z,5.50
2019-04-11T16:22:49.007Z,5.40
2019-04-11T16:25:29.210Z,6.47
2019-04-11T16:34:48.601Z,5.07
2019-04-11T16:37:18.930Z,5.60
2019-04-11T16:40:16.191Z,5.50
2019-04-11T16:42:48.898Z,5.10
2019-04-11T16:45:35.194Z,5.43
2019-04-11T16:48:17.618Z,5.27
2019-04-11T16:51:05.813Z,5.50
2019-04-11T16:53:38.307Z,5.50
2019-04-11T16:56:07.223Z,5.15
2019-04-11T16:58:36.247Z,5.93
2019-04-11T17:01:06.552Z,5.77
2019-04-11T17:03:35.519Z,6.10
2019-04-11T17:06:08.204Z,5.27
2019-04-11T17:08:57.019Z,5.43
2019-04-11T17:11:26.954Z,5.70
2019-04-11T17:13:57.336Z,5.13
2019-04-11T17:16:29.827Z,5.30
2019-04-11T17:18:56.603Z,5.40
2019-04-11T17:21:25.365Z,6.57
2019-04-11T17:23:54.148Z,5.00
2019-04-11T17:26:23.823Z,4.70
2019-04-11T17:28:54.325Z,5.17
2019-04-11T17:31:25.653Z,5.55
2019-04-11T17:33:56.503Z,4.97
2019-04-11T17:36:25.468Z,4.78
2019-04-11T17:38:54.310Z,5.10
2019-04-11T17:41:25.131Z,5.63
2019-04-11T17:43:53.945Z,5.53
2019-04-11T17:46:26.700Z,5.40
2019-04-11T17:48:55.006Z,5.73
2019-04-11T17:51:23.893Z,5.83
2019-04-11T17:53:54.981Z,5.13
2019-04-11T17:59:50.865Z,5.60
2019-04-11T18:02:19.806Z,5.50
2019-04-11T18:04:48.718Z,5.58
2019-04-11T18:07:17.787Z,5.50
2019-04-11T18:09:47.323Z,5.00
2019-04-11T18:12:16.274Z,4.80
2019-04-11T18:14:45.241Z,5.00
2019-04-11T18:17:16.394Z,5.20
2019-04-11T18:19:46.480Z,5.67
2019-04-11T18:22:15.703Z,4.85
2019-04-11T18:24:44.876Z,4.90
2019-04-11T18:27:14.080Z,5.12
2019-04-11T18:29:42.968Z,4.90
2019-04-11T18:32:12.135Z,4.90
2019-04-11T18:34:41.411Z,5.23
2019-04-11T18:37:10.854Z,7.50
2019-04-11T18:39:40.203Z,5.03
2019-04-11T18:42:09.134Z,5.03
2019-04-11T18:44:42.599Z,4.17
2019-04-11T18:47:11.455Z,4.53
2019-04-11T18:49:40.274Z,4.33
2019-04-11T18:52:19.190Z,4.80
2019-04-11T18:54:39.807Z,4.55
2019-04-11T18:57:08.580Z,4.90
2019-04-11T18:59:37.408Z,4.30
2019-04-11T19:02:09.622Z,6.33
2019-04-11T19:04:41.985Z,7.20
2019-04-11T19:07:08.373Z,4.70
2019-04-11T19:09:38.340Z,5.00
2019-04-11T19:12:08.727Z,5.03
2019-04-11T19:14:37.543Z,12.43
2019-04-11T19:17:06.431Z,7.87
2019-04-11T19:19:35.250Z,6.30
2019-04-11T19:22:04.686Z,5.40
2019-04-11T19:24:35.635Z,4.73
2019-04-11T19:27:04.058Z,4.80
2019-04-11T19:29:32.865Z,5.73
2019-04-11T19:32:02.004Z,4.78
2019-04-11T19:34:31.291Z,4.90
2019-04-11T19:37:03.541Z,4.47
2019-04-11T19:39:31.913Z,4.50
2019-04-11T19:42:00.646Z,5.37
2019-04-11T19:44:29.759Z,4.73
2019-04-11T19:46:58.527Z,4.57
2019-04-11T19:49:29.034Z,8.53
2019-04-11T19:51:58.649Z,6.77
2019-04-11T19:54:32.794Z,6.53
2019-04-11T19:57:04.634Z,6.97
2019-04-11T19:59:33.432Z,6.23
2019-04-11T20:02:02.199Z,5.40
2019-04-11T20:04:30.974Z,4.80
2019-04-11T20:06:59.720Z,5.77
2019-04-11T20:09:28.516Z,5.50
2019-04-11T20:11:57.893Z,5.03
2019-04-11T20:14:27.966Z,4.40
2019-04-11T20:16:57.896Z,5.07
2019-04-11T20:19:28.525Z,5.20
2019-04-11T20:21:59.488Z,5.93
2019-04-11T20:24:28.237Z,10.05
2019-04-11T20:26:57.184Z,7.47
2019-04-11T20:29:27.123Z,5.27
2019-04-11T20:31:56.252Z,6.87
2019-04-11T20:34:28.237Z,9.50
2019-04-11T20:36:57.363Z,6.50
2019-04-11T20:39:28.950Z,9.00
2019-04-11T20:41:57.887Z,8.95
2019-04-11T20:44:28.245Z,8.03
2019-04-11T20:47:00.134Z,6.97
2019-04-11T20:49:28.439Z,7.87
2019-04-11T20:51:57.622Z,6.07
2019-04-11T20:54:28.341Z,5.50
2019-04-11T20:57:05.430Z,5.40
2019-04-11T20:59:35.207Z,4.63
2019-04-11T21:02:04.518Z,5.43
2019-04-11T21:04:33.491Z,5.07
2019-04-11T21:07:03.797Z,4.93
2019-04-11T21:09:33.229Z,4.75
2019-04-11T21:12:04.967Z,4.67
2019-04-11T21:14:33.188Z,4.57
2019-04-11T21:17:02.151Z,4.87
2019-04-11T21:19:31.094Z,5.00
2019-04-11T21:21:59.934Z,4.70
2019-04-11T21:24:30.910Z,6.30
2019-04-11T21:26:59.786Z,5.77
2019-04-11T21:29:30.313Z,5.20
2019-04-11T21:32:01.161Z,4.43
2019-04-11T21:34:32.273Z,4.23
2019-04-11T21:37:02.578Z,4.90
2019-04-11T21:39:31.998Z,4.33
2019-04-11T21:42:01.040Z,4.77
2019-04-11T21:44:30.134Z,4.40
2019-04-11T21:46:58.938Z,4.35
2019-04-11T21:49:27.714Z,4.23
2019-04-11T21:51:56.623Z,4.22
2019-04-11T21:54:25.557Z,4.27
2019-04-11T21:56:54.412Z,4.77
2019-04-11T21:59:23.309Z,4.23
2019-04-11T22:01:54.094Z,4.63
2019-04-11T22:04:26.898Z,4.20
2019-04-11T22:06:53.430Z,4.80
2019-04-11T22:09:22.399Z,4.80
2019-04-11T22:11:51.245Z,4.50
2019-04-11T22:14:20.155Z,4.47
2019-04-11T22:16:48.997Z,4.33
2019-04-11T22:19:17.930Z,4.47
2019-04-11T22:21:46.783Z,4.10
2019-04-11T22:24:15.594Z,4.23
2019-04-11T22:26:44.412Z,4.37
2019-04-11T22:29:13.565Z,4.30
2019-04-11T22:31:42.610Z,4.10
2019-04-11T22:34:17.281Z,4.27
2019-04-11T22:36:46.223Z,4.70
2019-04-11T22:39:15.074Z,3.87
2019-04-11T22:41:44.387Z,4.42
2019-04-11T22:44:13.350Z,4.70
2019-04-11T22:46:42.278Z,4.50
2019-04-11T22:49:11.034Z,5.07
2019-04-11T22:51:42.737Z,4.10
2019-04-11T22:54:12.954Z,4.33
2019-04-11T22:56:42.421Z,4.50
2019-04-11T22:59:13.636Z,4.20
2019-04-11T23:01:46.582Z,3.62
2019-04-11T23:04:16.597Z,4.13
2019-04-11T23:06:47.264Z,3.92
2019-04-11T23:09:19.573Z,4.03
2019-04-11T23:11:47.245Z,4.00
2019-04-11T23:14:16.557Z,4.07
2019-04-11T23:16:45.994Z,3.90
2019-04-11T23:19:14.885Z,4.12
2019-04-11T23:21:43.636Z,4.17
2019-04-11T23:24:12.450Z,4.20
2019-04-11T23:26:41.388Z,3.77
2019-04-11T23:29:10.150Z,3.92
2019-04-11T23:31:38.873Z,4.13
2019-04-11T23:34:08.313Z,4.33
2019-04-11T23:36:37.067Z,4.03
2019-04-11T23:39:06.842Z,4.10
2019-04-11T23:41:35.584Z,4.13
2019-04-11T23:44:04.424Z,4.17
2019-04-11T23:46:33.165Z,4.13
2019-04-11T23:49:01.926Z,4.00
2019-04-11T23:51:30.700Z,4.20
2019-04-11T23:53:59.887Z,4.60
2019-04-11T23:56:30.587Z,4.17
2019-04-11T23:59:01.567Z,4.33
